createdAt,value
2022-11-21T00:01:35.810Z,20.40
2022-11-21T00:04:03.333Z,19.38
2022-11-21T00:06:31.164Z,18.92
2022-11-21T00:08:58.721Z,18.98
2022-11-21T00:11:26.280Z,20.50
2022-11-21T00:13:53.904Z,17.65
2022-11-21T00:16:22.763Z,19.77
2022-11-21T00:18:51.094Z,20.45
2022-11-21T00:21:21.032Z,20.38
2022-11-21T00:23:49.429Z,21.73
2022-11-21T00:26:18.058Z,22.85
2022-11-21T00:28:46.577Z,20.58
2022-11-21T00:31:25.116Z,21.33
2022-11-21T00:33:52.701Z,20.05
2022-11-21T00:36:20.236Z,20.25
2022-11-21T00:38:48.491Z,20.65
2022-11-21T00:41:16.165Z,22.40
2022-11-21T00:43:43.760Z,22.90
2022-11-21T00:46:12.123Z,20.35
2022-11-21T00:48:41.917Z,22.02
2022-11-21T00:51:09.743Z,22.63
2022-11-21T00:53:37.400Z,23.00
2022-11-21T00:56:05.336Z,22.63
2022-11-21T00:58:32.975Z,22.60
2022-11-21T01:01:06.119Z,22.40
2022-11-21T01:03:34.920Z,23.42
2022-11-21T01:06:06.780Z,23.35
2022-11-21T01:08:36.148Z,24.48
2022-11-21T01:11:05.208Z,22.52
2022-11-21T01:13:33.474Z,22.08
2022-11-21T01:16:04.657Z,21.50
2022-11-21T01:18:32.473Z,21.85
2022-11-21T01:21:00.819Z,21.63
2022-11-21T01:23:30.388Z,24.50
2022-11-21T01:26:02.588Z,25.55
2022-11-21T01:28:30.197Z,23.20
2022-11-21T01:31:04.549Z,22.73
2022-11-21T01:33:32.274Z,21.67
2022-11-21T01:36:07.254Z,23.90
2022-11-21T01:38:36.539Z,23.20
2022-11-21T01:41:04.651Z,23.80
2022-11-21T01:43:33.082Z,25.65
2022-11-21T01:46:02.111Z,21.98
2022-11-21T01:48:37.811Z,24.60
2022-11-21T01:51:11.509Z,23.33
2022-11-21T01:53:43.904Z,25.77
2022-11-21T01:56:11.856Z,25.23
2022-11-21T01:58:41.585Z,28.60
2022-11-21T02:01:10.069Z,23.02
2022-11-21T02:03:39.649Z,23.63
2022-11-21T02:06:10.788Z,24.92
2022-11-21T02:08:41.638Z,24.77
2022-11-21T02:11:16.214Z,21.42
2022-11-21T02:13:44.107Z,23.17
2022-11-21T02:16:14.112Z,25.30
2022-11-21T02:18:42.827Z,25.63
2022-11-21T02:21:18.871Z,24.25
2022-11-21T02:23:56.344Z,23.15
2022-11-21T02:26:30.041Z,25.80
2022-11-21T02:28:59.226Z,23.75
2022-11-21T02:31:27.593Z,26.08
2022-11-21T02:33:55.117Z,26.35
2022-11-21T02:36:36.241Z,25.08
2022-11-21T02:39:04.753Z,25.92
2022-11-21T02:41:36.235Z,25.02
2022-11-21T02:44:08.089Z,28.08
2022-11-21T02:49:09.170Z,24.63
2022-11-21T02:51:37.115Z,23.63
2022-11-21T02:54:05.033Z,24.65
2022-11-21T02:56:34.489Z,25.73
2022-11-21T02:59:04.525Z,26.45
2022-11-21T03:01:33.132Z,27.05
2022-11-21T03:04:02.060Z,26.88
2022-11-21T03:06:30.113Z,27.30
2022-11-21T03:08:59.037Z,25.50
2022-11-21T03:11:27.113Z,24.90
2022-11-21T03:13:56.753Z,25.73
2022-11-21T03:16:24.558Z,25.20
2022-11-21T03:18:52.137Z,25.60
2022-11-21T03:21:20.462Z,24.60
2022-11-21T03:23:50.055Z,27.33
2022-11-21T03:26:23.035Z,23.65
2022-11-21T03:31:45.814Z,23.75
2022-11-21T03:34:14.382Z,22.80
2022-11-21T03:36:42.039Z,24.45
2022-11-21T03:39:10.104Z,23.60
2022-11-21T03:41:37.689Z,26.63
2022-11-21T03:44:07.695Z,24.73
2022-11-21T03:46:37.277Z,26.58
2022-11-21T03:49:07.195Z,23.98
2022-11-21T03:51:36.081Z,26.25
2022-11-21T03:54:06.120Z,25.02
2022-11-21T03:56:34.092Z,23.48
2022-11-21T03:59:02.130Z,23.98
2022-11-21T04:01:35.165Z,23.55
2022-11-21T04:04:06.878Z,23.95
2022-11-21T04:06:35.053Z,23.75
2022-11-21T04:09:03.545Z,24.85
2022-11-21T04:11:32.129Z,24.42
2022-11-21T04:14:00.417Z,24.60
2022-11-21T04:16:27.987Z,23.38
2022-11-21T04:18:56.076Z,24.40
2022-11-21T04:21:25.130Z,23.00
2022-11-21T04:23:52.823Z,25.88
2022-11-21T04:26:20.374Z,24.60
2022-11-21T04:28:47.958Z,22.50
2022-11-21T04:31:15.516Z,22.52
2022-11-21T04:33:44.046Z,23.77
2022-11-21T04:36:11.592Z,25.20
2022-11-21T04:38:40.465Z,25.42
2022-11-21T04:41:08.105Z,26.58
2022-11-21T04:43:35.600Z,25.33
2022-11-21T04:46:05.135Z,24.83
2022-11-21T04:48:33.481Z,23.88
2022-11-21T04:51:01.039Z,25.83
2022-11-21T04:53:29.057Z,25.02
2022-11-21T04:55:57.936Z,23.63
2022-11-21T04:58:28.077Z,24.33
2022-11-21T05:00:55.765Z,25.15
2022-11-21T05:03:24.245Z,26.67
2022-11-21T05:05:52.445Z,24.67
2022-11-21T05:08:20.136Z,25.48
2022-11-21T05:11:05.198Z,26.95
2022-11-21T05:13:35.108Z,26.27
2022-11-21T05:16:02.719Z,25.40
2022-11-21T05:18:30.507Z,24.90
2022-11-21T05:20:58.485Z,24.13
2022-11-21T05:23:27.438Z,23.10
2022-11-21T05:25:55.121Z,25.23
2022-11-21T05:28:22.736Z,24.63
2022-11-21T05:30:51.632Z,21.88
2022-11-21T05:33:21.036Z,21.90
2022-11-21T05:35:48.603Z,21.95
2022-11-21T05:38:17.124Z,23.30
2022-11-21T05:40:46.449Z,22.35
2022-11-21T05:43:31.987Z,22.67
2022-11-21T05:46:00.865Z,21.98
2022-11-21T05:48:29.083Z,24.08
2022-11-21T05:50:56.632Z,28.10
2022-11-21T05:53:25.058Z,27.48
2022-11-21T05:55:53.093Z,27.38
2022-11-21T05:58:20.656Z,27.58
2022-11-21T06:00:48.371Z,28.25
2022-11-21T06:03:28.242Z,29.02
2022-11-21T06:06:05.069Z,32.42
2022-11-21T06:08:35.191Z,28.77
2022-11-21T06:11:03.726Z,26.40
2022-11-21T06:13:33.735Z,28.45
2022-11-21T06:16:05.478Z,26.75
2022-11-21T06:18:36.263Z,25.58
2022-11-21T06:21:05.423Z,29.17
2022-11-21T06:23:33.337Z,29.15
2022-11-21T06:26:04.127Z,29.60
2022-11-21T06:28:34.527Z,31.88
2022-11-21T06:31:06.127Z,30.17
2022-11-21T06:33:36.366Z,32.92
2022-11-21T06:36:05.125Z,29.55
2022-11-21T06:38:34.072Z,30.35
2022-11-21T06:41:06.396Z,31.10
2022-11-21T06:43:34.457Z,28.55
2022-11-21T06:46:03.241Z,29.75
2022-11-21T06:48:31.758Z,30.15
2022-11-21T06:51:05.220Z,32.58
2022-11-21T06:53:33.877Z,30.33
2022-11-21T06:56:01.880Z,30.67
2022-11-21T06:58:30.039Z,30.45
2022-11-21T07:00:58.104Z,29.85
2022-11-21T07:03:25.735Z,32.70
2022-11-21T07:05:58.632Z,30.30
2022-11-21T07:09:05.056Z,31.83
2022-11-21T07:11:41.045Z,32.17
2022-11-21T07:14:09.400Z,31.40
2022-11-21T07:16:37.393Z,33.92
2022-11-21T07:19:05.585Z,33.20
2022-11-21T07:21:35.053Z,34.42
2022-11-21T07:24:04.180Z,34.05
2022-11-21T07:26:31.749Z,32.88
2022-11-21T07:28:59.621Z,34.30
2022-11-21T07:31:28.147Z,33.45
2022-11-21T07:33:55.704Z,34.58
2022-11-21T07:36:23.286Z,37.70
2022-11-21T07:38:51.060Z,33.97
2022-11-21T07:41:20.073Z,35.65
2022-11-21T07:43:48.493Z,37.50
2022-11-21T07:46:17.031Z,34.25
2022-11-21T07:48:44.665Z,34.83
2022-11-21T07:51:12.265Z,36.78
2022-11-21T07:53:39.817Z,36.03
2022-11-21T07:56:09.447Z,34.97
2022-11-21T07:58:38.884Z,34.20
2022-11-21T08:01:08.033Z,36.55
2022-11-21T08:03:37.057Z,36.72
2022-11-21T08:06:06.009Z,37.60
2022-11-21T08:08:34.429Z,36.13
2022-11-21T08:11:05.890Z,37.20
2022-11-21T08:13:38.062Z,36.40
2022-11-21T08:16:09.798Z,36.33
2022-11-21T08:18:38.149Z,38.30
2022-11-21T08:21:06.500Z,35.70
2022-11-21T08:23:34.264Z,38.63
2022-11-21T08:26:03.023Z,36.92
2022-11-21T08:28:35.471Z,40.25
2022-11-21T08:31:04.634Z,40.42
2022-11-21T08:33:34.128Z,40.83
2022-11-21T08:36:06.075Z,39.25
2022-11-21T08:38:33.857Z,43.40
2022-11-21T08:41:18.980Z,41.90
2022-11-21T08:43:47.103Z,42.38
2022-11-21T08:49:09.053Z,42.53
2022-11-21T08:51:37.143Z,45.80
2022-11-21T08:54:05.442Z,41.60
2022-11-21T08:56:32.985Z,41.95
2022-11-21T08:59:03.073Z,44.13
2022-11-21T09:01:33.725Z,48.83
2022-11-21T09:04:03.035Z,45.60
2022-11-21T09:06:31.984Z,45.92
2022-11-21T09:09:00.135Z,45.15
2022-11-21T09:11:27.708Z,41.58
2022-11-21T09:14:14.055Z,47.95
2022-11-21T09:17:02.230Z,47.33
2022-11-21T09:19:30.781Z,46.30
2022-11-21T09:22:04.016Z,48.17
2022-11-21T09:24:31.662Z,50.08
2022-11-21T09:27:00.551Z,51.22
2022-11-21T09:29:28.256Z,50.55
2022-11-21T09:31:56.027Z,48.10
2022-11-21T09:34:25.059Z,50.33
2022-11-21T09:36:53.554Z,50.60
2022-11-21T09:39:22.575Z,53.50
2022-11-21T09:42:04.214Z,55.88
2022-11-21T09:44:47.340Z,50.28
2022-11-21T09:47:23.773Z,53.60
2022-11-21T09:49:57.737Z,52.20
2022-11-21T09:52:31.786Z,51.83
2022-11-21T09:55:05.610Z,52.80
2022-11-21T09:57:36.097Z,51.85
2022-11-21T10:00:23.018Z,48.38
2022-11-21T10:02:55.058Z,45.70
2022-11-21T10:05:31.455Z,46.63
2022-11-21T10:08:06.878Z,50.35
2022-11-21T10:10:51.551Z,53.83
2022-11-21T10:13:28.925Z,41.95
2022-11-21T10:16:02.822Z,47.30
2022-11-21T10:18:57.095Z,50.10
2022-11-21T10:21:44.102Z,48.47
2022-11-21T10:24:34.932Z,49.40
2022-11-21T10:27:08.773Z,50.33
2022-11-21T10:29:40.942Z,48.33
2022-11-21T10:34:41.740Z,49.78
2022-11-21T10:37:16.498Z,54.50
2022-11-21T10:39:47.409Z,53.80
2022-11-21T10:42:31.150Z,54.22
2022-11-21T10:45:19.802Z,49.90
2022-11-21T10:47:49.109Z,51.75
2022-11-21T10:50:29.442Z,51.22
2022-11-21T10:53:26.381Z,46.33
2022-11-21T10:56:02.062Z,52.97
2022-11-21T10:58:41.169Z,50.95
2022-11-21T11:01:21.101Z,55.22
2022-11-21T11:04:26.866Z,60.83
2022-11-21T11:06:54.924Z,57.45
2022-11-21T11:09:28.112Z,57.35
2022-11-21T11:12:47.036Z,51.78
2022-11-21T11:15:26.117Z,56.45
2022-11-21T11:17:57.485Z,56.58
2022-11-21T11:20:41.120Z,56.75
2022-11-21T11:23:25.092Z,52.55
2022-11-21T11:25:54.297Z,55.60
2022-11-21T11:28:23.908Z,51.88
2022-11-21T11:30:55.147Z,46.20
2022-11-21T11:33:35.855Z,47.92
2022-11-21T11:36:17.056Z,49.47
2022-11-21T11:38:49.271Z,47.85
2022-11-21T11:42:00.137Z,45.35
2022-11-21T11:44:55.978Z,43.85
2022-11-21T11:47:32.453Z,41.88
2022-11-21T11:50:13.559Z,43.90
2022-11-21T11:52:51.467Z,43.55
2022-11-21T11:55:25.357Z,41.63
2022-11-21T11:57:58.112Z,39.22
2022-11-21T12:00:39.468Z,36.92
2022-11-21T12:03:39.262Z,39.33
2022-11-21T12:06:16.058Z,37.00
2022-11-21T12:08:52.469Z,38.80
2022-11-21T12:11:51.794Z,37.13
2022-11-21T12:14:53.150Z,38.03
2022-11-21T12:17:27.058Z,35.92
2022-11-21T12:20:01.009Z,37.75
2022-11-21T12:22:28.638Z,35.03
2022-11-21T12:25:21.053Z,33.70
2022-11-21T12:27:54.404Z,34.80
2022-11-21T12:30:57.054Z,32.00
2022-11-21T12:33:25.302Z,37.25
2022-11-21T12:36:18.928Z,36.70
2022-11-21T12:39:18.107Z,33.65
2022-11-21T12:42:11.477Z,34.22
2022-11-21T12:44:56.104Z,36.35
2022-11-21T12:48:09.157Z,38.22
2022-11-21T12:51:06.592Z,35.40
2022-11-21T12:54:03.077Z,33.15
2022-11-21T12:56:42.168Z,34.08
2022-11-21T12:59:13.873Z,34.00
2022-11-21T13:01:51.547Z,31.92
2022-11-21T13:04:24.844Z,32.47
2022-11-21T13:06:55.120Z,32.25
2022-11-21T13:09:27.498Z,30.42
2022-11-21T13:12:04.210Z,37.65
2022-11-21T13:14:41.570Z,32.08
2022-11-21T13:17:23.121Z,31.85
2022-11-21T13:22:59.895Z,35.30
2022-11-21T13:25:47.370Z,34.92
2022-11-21T13:28:33.255Z,33.10
2022-11-21T13:31:03.377Z,29.20
2022-11-21T13:33:56.400Z,32.08
2022-11-21T13:36:43.344Z,33.80
2022-11-21T13:39:35.816Z,28.17
2022-11-21T13:42:40.376Z,35.35
2022-11-21T13:45:39.352Z,33.13
2022-11-21T13:48:28.073Z,31.30
2022-11-21T13:51:24.077Z,32.35
2022-11-21T13:54:36.042Z,35.08
2022-11-21T13:57:14.887Z,35.28
2022-11-21T13:59:59.845Z,35.28
2022-11-21T14:02:50.048Z,32.10
2022-11-21T14:05:32.982Z,32.70
2022-11-21T14:08:19.254Z,35.47
2022-11-21T14:10:48.265Z,34.53
2022-11-21T14:13:24.054Z,33.83
2022-11-21T14:16:06.851Z,32.33
2022-11-21T14:18:36.882Z,38.38
2022-11-21T14:21:08.172Z,35.30
2022-11-21T14:23:37.606Z,36.63
2022-11-21T14:26:12.533Z,31.48
2022-11-21T14:28:40.172Z,33.28
2022-11-21T14:31:12.328Z,32.65
2022-11-21T14:33:42.027Z,30.65
2022-11-21T14:36:14.259Z,34.03
2022-11-21T14:38:44.507Z,38.55
2022-11-21T14:41:28.194Z,33.38
2022-11-21T14:44:20.130Z,33.33
2022-11-21T14:46:51.130Z,36.97
2022-11-21T14:49:24.115Z,37.70
2022-11-21T14:54:23.015Z,34.33
2022-11-21T14:56:58.352Z,35.88
2022-11-21T14:59:28.304Z,33.78
2022-11-21T15:02:01.106Z,34.20
2022-11-21T15:04:33.984Z,33.53
2022-11-21T15:07:03.389Z,34.42
2022-11-21T15:12:27.961Z,31.90
2022-11-21T15:14:59.747Z,35.88
2022-11-21T15:17:29.913Z,36.42
2022-11-21T15:20:11.475Z,36.80
2022-11-21T15:22:42.100Z,39.72
2022-11-21T15:25:19.050Z,33.55
2022-11-21T15:27:52.012Z,33.50
2022-11-21T15:30:29.704Z,36.38
2022-11-21T15:33:07.328Z,37.40
2022-11-21T15:35:45.095Z,35.03
2022-11-21T15:38:32.084Z,36.92
2022-11-21T15:41:10.063Z,37.55
2022-11-21T15:43:43.151Z,40.58
2022-11-21T15:46:19.051Z,39.22
2022-11-21T15:48:51.054Z,40.17
2022-11-21T15:51:44.042Z,37.15
2022-11-21T15:54:12.081Z,41.50
2022-11-21T15:56:40.359Z,44.03
2022-11-21T15:59:10.033Z,43.17
2022-11-21T16:01:38.125Z,40.70
2022-11-21T16:04:09.238Z,36.78
2022-11-21T16:06:37.209Z,36.37
2022-11-21T16:09:07.149Z,34.42
2022-11-21T16:11:37.769Z,34.72
2022-11-21T16:14:07.486Z,34.13
2022-11-21T16:16:42.597Z,33.63
2022-11-21T16:19:15.075Z,28.13
2022-11-21T16:21:46.028Z,31.55
2022-11-21T16:24:14.535Z,28.83
2022-11-21T16:26:44.034Z,30.23
2022-11-21T16:29:13.037Z,28.85
2022-11-21T16:31:41.052Z,28.25
2022-11-21T16:34:09.553Z,27.70
2022-11-21T16:36:38.579Z,29.63
2022-11-21T16:39:11.167Z,27.25
2022-11-21T16:41:41.604Z,26.63
2022-11-21T16:44:13.423Z,26.00
2022-11-21T16:46:43.558Z,28.25
2022-11-21T16:49:11.143Z,25.30
2022-11-21T16:51:40.056Z,23.95
2022-11-21T16:54:09.459Z,26.10
2022-11-21T16:56:38.149Z,24.17
2022-11-21T16:59:05.788Z,22.20
2022-11-21T17:01:33.716Z,23.77
2022-11-21T17:04:01.313Z,23.35
2022-11-21T17:06:32.017Z,23.33
2022-11-21T17:09:02.586Z,23.23
2022-11-21T17:11:31.815Z,22.67
2022-11-21T17:14:01.641Z,23.40
2022-11-21T17:16:30.465Z,22.10
2022-11-21T17:19:02.131Z,21.98
2022-11-21T17:21:31.140Z,22.77
2022-11-21T17:23:59.502Z,20.95
2022-11-21T17:26:30.545Z,22.10
2022-11-21T17:28:59.633Z,23.70
2022-11-21T17:31:29.027Z,24.90
2022-11-21T17:33:57.017Z,22.77
2022-11-21T17:36:26.795Z,22.13
2022-11-21T17:38:55.485Z,21.65
2022-11-21T17:41:25.485Z,24.02
2022-11-21T17:43:56.822Z,21.75
2022-11-21T17:46:25.293Z,19.85
2022-11-21T17:48:57.485Z,21.70
2022-11-21T17:51:26.993Z,21.48
2022-11-21T17:53:54.944Z,21.80
2022-11-21T17:56:24.098Z,23.92
2022-11-21T17:58:53.045Z,19.73
2022-11-21T18:01:22.664Z,20.13
2022-11-21T18:03:57.044Z,20.08
2022-11-21T18:06:25.933Z,21.77
2022-11-21T18:08:53.817Z,24.13
2022-11-21T18:11:22.701Z,19.42
2022-11-21T18:13:51.474Z,22.17
2022-11-21T18:16:24.052Z,20.90
2022-11-21T18:18:52.185Z,19.50
2022-11-21T18:21:21.966Z,20.60
2022-11-21T18:23:50.359Z,20.55
2022-11-21T18:26:21.492Z,19.05
2022-11-21T18:29:01.721Z,19.63
2022-11-21T18:31:39.499Z,18.35
2022-11-21T18:34:07.558Z,18.77
2022-11-21T18:36:35.970Z,20.77
2022-11-21T18:39:08.898Z,18.80
2022-11-21T18:41:41.137Z,20.20
2022-11-21T18:44:10.208Z,18.77
2022-11-21T18:46:39.322Z,19.58
2022-11-21T18:49:08.439Z,21.73
2022-11-21T18:51:37.095Z,17.30
2022-11-21T18:54:08.104Z,18.80
2022-11-21T18:56:38.107Z,19.55
2022-11-21T18:59:06.841Z,19.77
2022-11-21T19:01:36.559Z,21.40
2022-11-21T19:04:06.270Z,18.00
2022-11-21T19:06:33.973Z,19.60
2022-11-21T19:09:02.693Z,18.48
2022-11-21T19:11:31.215Z,19.30
2022-11-21T19:14:00.241Z,18.38
2022-11-21T19:16:30.834Z,20.40
2022-11-21T19:21:48.003Z,18.58
2022-11-21T19:24:16.329Z,17.80
2022-11-21T19:26:44.061Z,16.38
2022-11-21T19:29:12.699Z,16.65
2022-11-21T19:31:45.322Z,16.63
2022-11-21T19:34:14.819Z,14.60
2022-11-21T19:36:42.935Z,16.05
2022-11-21T19:39:12.404Z,14.88
2022-11-21T19:41:41.251Z,14.05
2022-11-21T19:44:09.057Z,15.95
2022-11-21T19:46:38.163Z,14.93
2022-11-21T19:49:07.128Z,14.60
2022-11-21T19:51:36.652Z,14.93
2022-11-21T19:54:05.015Z,16.88
2022-11-21T19:56:35.064Z,16.15
2022-11-21T19:59:03.033Z,19.10
2022-11-21T20:01:33.222Z,14.60
2022-11-21T20:04:03.106Z,14.90
2022-11-21T20:06:32.969Z,15.63
2022-11-21T20:09:03.432Z,14.55
2022-11-21T20:11:34.041Z,14.23
2022-11-21T20:14:03.485Z,15.30
2022-11-21T20:16:32.848Z,15.25
2022-11-21T20:19:02.508Z,15.35
2022-11-21T20:21:32.011Z,15.57
2022-11-21T20:23:59.915Z,16.00
2022-11-21T20:26:27.805Z,15.85
2022-11-21T20:28:57.067Z,15.38
2022-11-21T20:31:29.839Z,15.02
2022-11-21T20:34:00.667Z,13.88
2022-11-21T20:36:34.121Z,15.43
2022-11-21T20:39:04.844Z,14.63
2022-11-21T20:41:34.572Z,14.63
2022-11-21T20:46:53.941Z,13.10
2022-11-21T20:49:21.584Z,12.45
2022-11-21T20:54:38.559Z,14.27
2022-11-21T20:57:10.425Z,14.00
2022-11-21T20:59:42.004Z,13.85
2022-11-21T21:02:13.724Z,12.60
2022-11-21T21:04:41.542Z,14.05
2022-11-21T21:07:09.243Z,12.18
2022-11-21T21:09:37.001Z,14.48
2022-11-21T21:12:05.605Z,13.50
2022-11-21T21:14:34.269Z,13.18
2022-11-21T21:17:01.961Z,13.32
2022-11-21T21:19:31.336Z,12.75
2022-11-21T21:21:59.210Z,14.32
2022-11-21T21:24:27.645Z,13.30
2022-11-21T21:26:55.171Z,14.20
2022-11-21T21:29:23.441Z,12.95
2022-11-21T21:31:52.660Z,12.70
2022-11-21T21:34:22.230Z,12.02
2022-11-21T21:36:51.871Z,13.25
2022-11-21T21:39:19.578Z,11.60
2022-11-21T21:41:48.058Z,12.85
2022-11-21T21:44:18.818Z,12.40
2022-11-21T21:46:46.725Z,11.05
2022-11-21T21:49:14.520Z,13.57
2022-11-21T21:51:42.245Z,12.07
2022-11-21T21:54:20.268Z,13.13
2022-11-21T21:56:48.292Z,14.25
2022-11-21T21:59:18.296Z,12.40
2022-11-21T22:01:46.115Z,11.63
2022-11-21T22:04:13.905Z,12.85
2022-11-21T22:06:41.501Z,12.30
2022-11-21T22:09:09.488Z,13.02
2022-11-21T22:11:39.405Z,13.07
2022-11-21T22:14:09.122Z,12.93
2022-11-21T22:16:37.388Z,13.43
2022-11-21T22:19:05.657Z,14.55
2022-11-21T22:21:36.570Z,12.90
2022-11-21T22:26:56.061Z,13.82
2022-11-21T22:29:23.758Z,14.70
2022-11-21T22:31:51.727Z,14.88
2022-11-21T22:34:19.345Z,12.98
2022-11-21T22:36:47.488Z,13.82
2022-11-21T22:39:15.249Z,15.55
2022-11-21T22:41:42.918Z,13.60
2022-11-21T22:44:11.909Z,15.23
2022-11-21T22:46:39.466Z,15.73
2022-11-21T22:49:07.073Z,14.73
2022-11-21T22:51:34.723Z,14.00
2022-11-21T22:54:02.357Z,13.85
2022-11-21T22:56:30.497Z,15.13
2022-11-21T22:58:58.000Z,17.13
2022-11-21T23:01:27.518Z,14.48
2022-11-21T23:03:56.384Z,15.90
2022-11-21T23:06:25.753Z,15.38
2022-11-21T23:08:53.605Z,14.13
2022-11-21T23:11:23.476Z,14.50
2022-11-21T23:13:51.936Z,14.55
2022-11-21T23:16:20.102Z,14.40
2022-11-21T23:18:49.745Z,15.25
2022-11-21T23:21:17.405Z,14.90
2022-11-21T23:23:45.563Z,15.68
2022-11-21T23:26:13.118Z,15.00
2022-11-21T23:28:40.787Z,16.38
2022-11-21T23:31:08.327Z,14.25
2022-11-21T23:33:35.960Z,15.30
2022-11-21T23:36:05.040Z,15.00
2022-11-21T23:38:32.841Z,14.45
2022-11-21T23:41:00.397Z,14.05
2022-11-21T23:43:28.083Z,14.98
2022-11-21T23:45:56.029Z,13.35
2022-11-21T23:48:24.436Z,13.60
2022-11-21T23:50:52.169Z,12.45
2022-11-21T23:53:22.556Z,12.48
2022-11-21T23:55:50.776Z,13.25
2022-11-21T23:58:18.321Z,13.57
